Terminal Aerodrome Forecast
Issued by NWS

Home | Current Version | Previous Version | Text Only | Print | Product List | Glossary On
Versions: 1 2 3 4 5 6 7 8 9 10 11 12 13 14 15 16
301
FTUS45 KRIW 190523
TAFWRL
TAF
KWRL 190523Z 1906/2006 31010KT P6SM -SN OVC035
      TEMPO 1906/1910 3SM -SN OVC025
     FM191000 31008KT 4SM -SN OVC024
     FM192300 VRB05KT P6SM SCT030 BKN070=

USA.gov is the U.S. government's official web portal to all federal, state and local government web resources and services.